Nearby METAR Reports

 

KALB - Albany, New York, USA
Distance from station: E 47mi, 75km
Updated: Wed, 25-May-2022 11:51pm EDT
Overcast
Overcast
 Wind from SSE
Wind: SSE 15 mph , 24 km/h, Gust: 23 mph , 37 km/h
Temperature: 64°F , 18°C
Dew Point: 50°F , 10°C
Humidity: 60%
Barometer: 30.28 inHg , 1025.4 hPa
Clouds: Overcast
Visibility: 10 miles , 16 km
Cloud details: Few Clouds 18000 ft
Overcast 23000 ft
2022/05/26 03:51 KALB 260351Z 15013G20KT 10SM FEW180 OVC230 18/10 A3028 RMK AO2 SLP254 T01780100
KSLK - Saranac Lake, New York, USA
Distance from station: N 110mi, 177km
Updated: Wed, 25-May-2022 11:51pm EDT
Clear
Clear
 Wind from calm
Wind: Calm
Temperature: 54°F , 12°C
Dew Point: 48°F , 9°C
Humidity: 82%
Barometer: 30.25 inHg , 1024.4 hPa
Clouds: Clear
Visibility: 10 miles , 16 km
2022/05/26 03:51 KSLK 260351Z AUTO 00000KT 10SM CLR 12/09 A3025 RMK AO2 SLP241 T01170089
 
KSYR - Syracuse, New York, USA
Distance from station: W 73mi, 117km
Updated: Wed, 25-May-2022 11:54pm EDT
Overcast
Overcast
 Wind from S
Wind: S 9 mph , 15 km/h
Temperature: 68°F , 20°C
Dew Point: 48°F , 9°C
Humidity: 49%
Barometer: 30.19 inHg , 1022.4 hPa
Clouds: Overcast
Visibility: 10 miles , 16 km
Cloud details: Overcast 16000 ft
2022/05/26 03:54 KSYR 260354Z 17008KT 10SM OVC160 20/09 A3019 RMK AO2 SLP217 T02000089
KBGM - Binghamton, New York, USA
Distance from station: SW 78mi, 126km
Updated: Wed, 25-May-2022 11:53pm EDT
Clear
Clear
 Wind from S
Wind: S 12 mph , 19 km/h, Gust: 18 mph , 30 km/h
Temperature: 61°F , 16°C
Dew Point: 46°F , 8°C
Humidity: 59%
Barometer: 30.25 inHg , 1024.4 hPa
Clouds: Clear
Visibility: 10 miles , 16 km
2022/05/26 03:53 KBGM 260353Z AUTO 18010G16KT 10SM CLR 16/08 A3025 RMK AO2 SLP241 T01560083 $
 
KRME - Rome, New York, USA
Distance from station: WNW 43mi, 69km
Updated: Wed, 25-May-2022 11:53pm EDT
Clear
Clear
 Wind from SSE
Wind: SSE 7 mph , 11 km/h
Temperature: 68°F , 20°C
Dew Point: 50°F , 10°C
Humidity: 53%
Barometer: 30.24 inHg , 1024 hPa
Clouds: Clear
Visibility: 10 miles , 16 km
2022/05/26 03:53 KRME 260353Z AUTO 15006KT 10SM CLR 20/10 A3024 RMK AO2 SLP235 T02000100
KJFK - New York, New York, USA
Distance from station: SSE 159mi, 256km
Updated: Wed, 25-May-2022 11:51pm EDT
Mostly cloudy
Mostly cloudy
 Wind from SSE
Wind: SSE 3 mph , 6 km/h
Temperature: 54°F , 12°C
Dew Point: 46°F , 8°C
Humidity: 77%
Barometer: 30.38 inHg , 1028.8 hPa
Clouds: Mostly cloudy
Visibility: 10 miles , 16 km
Cloud details: Mostly cloudy 25000 ft
2022/05/26 03:51 KJFK 260351Z 15003KT 10SM BKN250 12/08 A3038 RMK AO2 SLP286 T01220078
 
KROC - Rochester, New York, USA
Distance from station: W 150mi, 242km
Updated: Wed, 25-May-2022 11:54pm EDT
Overcast
Overcast
 Wind from S
Wind: S 8 mph , 13 km/h
Temperature: 68°F , 20°C
Dew Point: 46°F , 8°C
Humidity: 46%
Barometer: 30.13 inHg , 1020.3 hPa
Clouds: Overcast
Visibility: 10 miles , 16 km
Cloud details: Overcast 11000 ft
2022/05/26 03:54 KROC 260354Z 17007KT 10SM OVC110 20/08 A3013 RMK AO2 SLP204 T02000083
KART - Watertown, New York, USA
Distance from station: NNW 103mi, 166km
Updated: Wed, 25-May-2022 11:56pm EDT
Mostly cloudy
Mostly cloudy
 Wind from ESE
Wind: ESE 3 mph , 6 km/h
Temperature: 63°F , 17°C
Dew Point: 54°F , 12°C
Humidity: 73%
Barometer: 30.16 inHg , 1021.3 hPa
Clouds: Mostly cloudy
Visibility: 10 miles , 16 km
Cloud details: Mostly cloudy 7000 ft
2022/05/26 03:56 KART 260356Z AUTO 12003KT 10SM BKN070 17/12 A3016 RMK AO2 SLP210 T01670117
 
KELM - Elmira-Corning, New York, USA
Distance from station: SSW 121mi, 195km
Updated: Wed, 25-May-2022 11:53pm EDT
Partly cloudy
Partly cloudy
 Wind from S
Wind: S 9 mph , 15 km/h
Temperature: 64°F , 18°C
Dew Point: 50°F , 10°C
Humidity: 60%
Barometer: 30.21 inHg , 1023 hPa
Clouds: Partly cloudy
Visibility: 10 miles , 16 km
Cloud details: Partly cloudy 11000 ft
2022/05/26 03:53 KELM 260353Z 19008KT 10SM SCT110 18/10 A3021 RMK AO2 SLP226 T01830100
KJHW - Jamestown, New York, USA
Distance from station: SW 238mi, 383km
Updated: Wed, 25-May-2022 11:56pm EDT
Clear
Clear
 Wind from S
Wind: S 18 mph , 30 km/h, Gust: 24 mph , 39 km/h
Temperature: 61°F , 16°C
Dew Point: 54°F , 12°C
Humidity: 77%
Barometer: 30.15 inHg , 1021 hPa
Clouds: Clear
Visibility: 10 miles , 16 km
2022/05/26 03:56 KJHW 260356Z AUTO 18016G21KT 10SM CLR 16/12 A3015 RMK AO2 SLP208 T01610117
 
KMSS - Massena, New York, USA
Distance from station: N 141mi, 232km
Updated: Wed, 25-May-2022 11:53pm EDT
Mostly cloudy
Mostly cloudy
 Wind from ENE
Wind: ENE 5 mph , 7 km/h
Temperature: 61°F , 16°C
Dew Point: 46°F , 8°C
Humidity: 59%
Barometer: 30.21 inHg , 1023 hPa
Clouds: Mostly cloudy
Visibility: 10 miles , 16 km
Cloud details: Few Clouds 7500 ft
Mostly cloudy 10000 ft
Mostly cloudy 12000 ft
2022/05/26 03:53 KMSS 260353Z AUTO 06004KT 10SM FEW075 BKN100 BKN120 16/08 A3021 RMK AO2 SLP229 T01560083
KBUF - Buffalo, New York, USA
Distance from station: W 204mi, 328km
Updated: Wed, 25-May-2022 11:54pm EDT
Overcast
Overcast
 Wind from SSE
Wind: SSE 9 mph , 15 km/h
Temperature: 66°F , 19°C
Dew Point: 52°F , 11°C
Humidity: 60%
Barometer: 30.09 inHg , 1019 hPa
Clouds: Overcast
Visibility: 10 miles , 16 km
Cloud details: Overcast 20000 ft
2022/05/26 03:54 KBUF 260354Z 16008KT 10SM OVC200 19/11 A3009 RMK AO2 SLP188 T01940111